sensor_id;sensor_type;location;lat;lon;timestamp;pressure;altitude;pressure_sealevel;temperature;humidity
22830;BME280;11581;51.250;6.778;2023-09-08T00:01:10;101272.44;;;24.45;44.86
22830;BME280;11581;51.250;6.778;2023-09-08T00:03:37;101222.47;;;24.08;45.17
22830;BME280;11581;51.250;6.778;2023-09-08T00:06:05;101257.09;;;24.26;45.40
22830;BME280;11581;51.250;6.778;2023-09-08T00:08:32;101276.72;;;24.34;45.13
22830;BME280;11581;51.250;6.778;2023-09-08T00:10:58;101283.47;;;24.32;45.31
22830;BME280;11581;51.250;6.778;2023-09-08T00:13:24;101254.06;;;24.16;45.37
22830;BME280;11581;51.250;6.778;2023-09-08T00:15:51;101241.31;;;24.10;45.37
22830;BME280;11581;51.250;6.778;2023-09-08T00:18:18;101271.19;;;24.23;45.45
22830;BME280;11581;51.250;6.778;2023-09-08T00:20:45;101268.91;;;24.20;45.72
22830;BME280;11581;51.250;6.778;2023-09-08T00:23:13;101266.03;;;24.15;46.40
22830;BME280;11581;51.250;6.778;2023-09-08T00:25:40;101272.72;;;24.12;45.70
22830;BME280;11581;51.250;6.778;2023-09-08T00:28:07;101270.66;;;24.08;45.80
22830;BME280;11581;51.250;6.778;2023-09-08T00:30:34;101241.09;;;23.86;46.08
22830;BME280;11581;51.250;6.778;2023-09-08T00:33:01;101224.63;;;23.75;46.15
22830;BME280;11581;51.250;6.778;2023-09-08T00:35:27;101256.97;;;23.89;46.22
22830;BME280;11581;51.250;6.778;2023-09-08T00:37:54;101263.66;;;23.93;46.31
22830;BME280;11581;51.250;6.778;2023-09-08T00:40:23;101238.28;;;23.68;46.83
22830;BME280;11581;51.250;6.778;2023-09-08T00:42:49;101266.66;;;23.85;46.38
22830;BME280;11581;51.250;6.778;2023-09-08T00:45:16;101240.84;;;23.63;46.45
22830;BME280;11581;51.250;6.778;2023-09-08T00:47:43;101243.13;;;23.66;46.68
22830;BME280;11581;51.250;6.778;2023-09-08T00:50:11;101262.97;;;23.73;46.80
22830;BME280;11581;51.250;6.778;2023-09-08T00:52:38;101249.47;;;23.60;46.55
22830;BME280;11581;51.250;6.778;2023-09-08T00:55:05;101281.84;;;23.68;46.76
22830;BME280;11581;51.250;6.778;2023-09-08T00:57:34;101276.84;;;23.65;47.02
22830;BME280;11581;51.250;6.778;2023-09-08T01:00:01;101274.56;;;23.62;46.87
22830;BME280;11581;51.250;6.778;2023-09-08T01:02:31;101213.03;;;23.30;47.12
22830;BME280;11581;51.250;6.778;2023-09-08T01:04:59;101223.22;;;23.35;47.26
22830;BME280;11581;51.250;6.778;2023-09-08T01:09:54;101219.75;;;23.21;47.50
22830;BME280;11581;51.250;6.778;2023-09-08T01:12:21;101260.44;;;23.47;47.40
22830;BME280;11581;51.250;6.778;2023-09-08T01:14:50;101260.88;;;23.44;47.88
22830;BME280;11581;51.250;6.778;2023-09-08T01:17:17;101265.69;;;23.42;47.64
22830;BME280;11581;51.250;6.778;2023-09-08T01:19:45;101223.56;;;23.14;48.10
22830;BME280;11581;51.250;6.778;2023-09-08T01:22:23;101231.50;;;23.15;48.35
22830;BME280;11581;51.250;6.778;2023-09-08T01:25:17;101270.78;;;23.32;48.67
22830;BME280;11581;51.250;6.778;2023-09-08T01:27:47;101272.06;;;23.30;48.09
22830;BME280;11581;51.250;6.778;2023-09-08T01:30:15;101247.81;;;23.15;48.27
22830;BME280;11581;51.250;6.778;2023-09-08T01:32:43;101270.81;;;23.19;48.34
22830;BME280;11581;51.250;6.778;2023-09-08T01:35:11;101211.97;;;22.87;48.37
22830;BME280;11581;51.250;6.778;2023-09-08T01:37:41;101271.25;;;23.16;49.30
22830;BME280;11581;51.250;6.778;2023-09-08T01:40:10;101270.03;;;23.12;49.04
22830;BME280;11581;51.250;6.778;2023-09-08T01:42:38;101265.63;;;23.11;48.50
22830;BME280;11581;51.250;6.778;2023-09-08T01:45:07;101269.81;;;23.07;48.68
22830;BME280;11581;51.250;6.778;2023-09-08T01:47:36;101265.66;;;23.05;48.64
22830;BME280;11581;51.250;6.778;2023-09-08T01:50:04;101272.38;;;23.02;48.72
22830;BME280;11581;51.250;6.778;2023-09-08T01:52:31;101186.59;;;22.49;49.01
22830;BME280;11581;51.250;6.778;2023-09-08T01:54:58;101261.28;;;22.97;48.92
22830;BME280;11581;51.250;6.778;2023-09-08T01:57:26;101224.59;;;22.69;49.82
22830;BME280;11581;51.250;6.778;2023-09-08T01:59:53;101259.44;;;22.91;49.32
22830;BME280;11581;51.250;6.778;2023-09-08T02:02:20;101191.81;;;22.44;49.36
22830;BME280;11581;51.250;6.778;2023-09-08T02:04:47;101265.75;;;22.85;49.58
22830;BME280;11581;51.250;6.778;2023-09-08T02:07:14;101242.56;;;22.76;49.59
22830;BME280;11581;51.250;6.778;2023-09-08T02:09:41;101256.53;;;22.80;49.68
22830;BME280;11581;51.250;6.778;2023-09-08T02:12:08;101171.63;;;22.27;49.86
22830;BME280;11581;51.250;6.778;2023-09-08T02:14:36;101249.88;;;22.76;50.48
22830;BME280;11581;51.250;6.778;2023-09-08T02:17:04;101260.97;;;22.74;50.02
22830;BME280;11581;51.250;6.778;2023-09-08T02:19:31;101250.50;;;22.71;50.21
22830;BME280;11581;51.250;6.778;2023-09-08T02:21:58;101252.63;;;22.69;50.19
22830;BME280;11581;51.250;6.778;2023-09-08T02:24:25;101156.41;;;22.07;50.20
22830;BME280;11581;51.250;6.778;2023-09-08T02:26:54;101264.97;;;22.65;50.56
22830;BME280;11581;51.250;6.778;2023-09-08T02:29:20;101258.28;;;22.61;50.57
22830;BME280;11581;51.250;6.778;2023-09-08T02:31:52;101270.22;;;22.60;51.82
22830;BME280;11581;51.250;6.778;2023-09-08T02:34:19;101266.06;;;22.58;50.93
22830;BME280;11581;51.250;6.778;2023-09-08T02:36:47;101247.41;;;22.48;50.86
22830;BME280;11581;51.250;6.778;2023-09-08T02:39:17;101206.72;;;22.22;50.98
22830;BME280;11581;51.250;6.778;2023-09-08T02:41:43;101257.25;;;22.49;51.02
22830;BME280;11581;51.250;6.778;2023-09-08T02:44:10;101239.50;;;22.40;51.23
22830;BME280;11581;51.250;6.778;2023-09-08T02:46:37;101249.72;;;22.45;51.44
22830;BME280;11581;51.250;6.778;2023-09-08T02:49:05;101254.75;;;22.41;52.27
22830;BME280;11581;51.250;6.778;2023-09-08T02:51:34;101176.25;;;21.94;51.56
22830;BME280;11581;51.250;6.778;2023-09-08T02:54:01;101250.16;;;22.35;51.79
22830;BME280;11581;51.250;6.778;2023-09-08T02:56:28;101254.97;;;22.33;52.25
22830;BME280;11581;51.250;6.778;2023-09-08T02:58:55;101255.19;;;22.32;51.97
22830;BME280;11581;51.250;6.778;2023-09-08T03:01:22;101258.09;;;22.30;52.43
22830;BME280;11581;51.250;6.778;2023-09-08T03:03:49;101226.41;;;22.11;52.34
22830;BME280;11581;51.250;6.778;2023-09-08T03:06:20;101238.50;;;22.15;52.77
22830;BME280;11581;51.250;6.778;2023-09-08T03:08:50;101254.78;;;22.22;52.37
22830;BME280;11581;51.250;6.778;2023-09-08T03:11:17;101219.09;;;21.92;52.39
22830;BME280;11581;51.250;6.778;2023-09-08T03:13:43;101250.59;;;22.19;52.49
22830;BME280;11581;51.250;6.778;2023-09-08T03:16:10;101248.94;;;22.18;52.64
22830;BME280;11581;51.250;6.778;2023-09-08T03:18:37;101205.53;;;21.92;52.53
22830;BME280;11581;51.250;6.778;2023-09-08T03:21:05;101240.59;;;22.13;52.67
22830;BME280;11581;51.250;6.778;2023-09-08T03:23:39;101238.09;;;22.05;53.25
22830;BME280;11581;51.250;6.778;2023-09-08T03:26:07;101238.50;;;22.09;52.90
22830;BME280;11581;51.250;6.778;2023-09-08T03:28:34;101234.31;;;22.06;53.03
22830;BME280;11581;51.250;6.778;2023-09-08T03:31:02;101205.72;;;21.84;53.05
22830;BME280;11581;51.250;6.778;2023-09-08T03:33:31;101233.91;;;22.02;52.99
22830;BME280;11581;51.250;6.778;2023-09-08T03:36:11;101165.63;;;21.60;52.99
22830;BME280;11581;51.250;6.778;2023-09-08T03:38:39;101157.47;;;21.53;53.69
22830;BME280;11581;51.250;6.778;2023-09-08T03:41:07;101232.25;;;21.95;53.70
22830;BME280;11581;51.250;6.778;2023-09-08T03:43:34;101195.09;;;21.76;53.48
22830;BME280;11581;51.250;6.778;2023-09-08T03:46:01;101233.69;;;21.91;53.41
22830;BME280;11581;51.250;6.778;2023-09-08T03:48:28;101222.22;;;21.89;53.46
22830;BME280;11581;51.250;6.778;2023-09-08T03:50:55;101225.16;;;21.87;53.40
22830;BME280;11581;51.250;6.778;2023-09-08T03:53:23;101228.06;;;21.86;53.60
22830;BME280;11581;51.250;6.778;2023-09-08T03:55:51;101231.00;;;21.84;53.90
22830;BME280;11581;51.250;6.778;2023-09-08T03:58:19;101228.50;;;21.83;53.64
22830;BME280;11581;51.250;6.778;2023-09-08T04:00:46;101225.97;;;21.75;53.65
22830;BME280;11581;51.250;6.778;2023-09-08T04:03:14;101212.59;;;21.67;53.55
22830;BME280;11581;51.250;6.778;2023-09-08T04:05:41;101241.63;;;21.79;53.39
22830;BME280;11581;51.250;6.778;2023-09-08T04:08:08;101232.88;;;21.77;53.76
22830;BME280;11581;51.250;6.778;2023-09-08T04:10:35;101236.63;;;21.76;53.49
22830;BME280;11581;51.250;6.778;2023-09-08T04:13:04;101216.13;;;21.61;54.22
22830;BME280;11581;51.250;6.778;2023-09-08T04:15:32;101233.31;;;21.74;53.67
22830;BME280;11581;51.250;6.778;2023-09-08T04:17:59;101221.78;;;21.66;53.56
22830;BME280;11581;51.250;6.778;2023-09-08T04:20:26;101236.22;;;21.73;53.65
22830;BME280;11581;51.250;6.778;2023-09-08T04:22:54;101241.81;;;21.71;53.86
22830;BME280;11581;51.250;6.778;2023-09-08T04:25:21;101148.25;;;21.09;53.60
22830;BME280;11581;51.250;6.778;2023-09-08T04:27:48;101235.97;;;21.68;53.71
22830;BME280;11581;51.250;6.778;2023-09-08T04:30:16;101237.03;;;21.67;54.34
22830;BME280;11581;51.250;6.778;2023-09-08T04:32:44;101233.66;;;21.65;53.67
22830;BME280;11581;51.250;6.778;2023-09-08T04:35:11;101236.59;;;21.63;53.59
22830;BME280;11581;51.250;6.778;2023-09-08T04:37:37;101238.47;;;21.63;53.73
22830;BME280;11581;51.250;6.778;2023-09-08T04:40:09;101237.84;;;21.61;54.98
22830;BME280;11581;51.250;6.778;2023-09-08T04:42:36;101230.97;;;21.58;54.13
22830;BME280;11581;51.250;6.778;2023-09-08T04:45:05;101234.69;;;21.57;54.01
22830;BME280;11581;51.250;6.778;2023-09-08T04:47:35;101202.75;;;21.40;54.52
22830;BME280;11581;51.250;6.778;2023-09-08T04:50:04;101234.28;;;21.54;54.06
22830;BME280;11581;51.250;6.778;2023-09-08T04:52:31;101176.44;;;21.21;54.24
22830;BME280;11581;51.250;6.778;2023-09-08T04:54:59;101234.28;;;21.54;54.09
22830;BME280;11581;51.250;6.778;2023-09-08T04:57:27;101236.97;;;21.41;53.91
22830;BME280;11581;51.250;6.778;2023-09-08T04:59:57;101243.47;;;21.53;54.28
22830;BME280;11581;51.250;6.778;2023-09-08T05:02:24;101190.00;;;21.21;54.21
22830;BME280;11581;51.250;6.778;2023-09-08T05:04:52;101243.47;;;21.53;54.57
22830;BME280;11581;51.250;6.778;2023-09-08T05:07:20;101242.44;;;21.54;54.26
22830;BME280;11581;51.250;6.778;2023-09-08T05:09:47;101245.16;;;21.54;54.17
22830;BME280;11581;51.250;6.778;2023-09-08T05:12:14;101230.53;;;21.55;54.45
22830;BME280;11581;51.250;6.778;2023-09-08T05:14:41;101219.25;;;21.45;54.53
22830;BME280;11581;51.250;6.778;2023-09-08T05:17:08;101240.16;;;21.64;54.86
22830;BME280;11581;51.250;6.778;2023-09-08T05:19:35;101243.31;;;21.74;55.28
22830;BME280;11581;51.250;6.778;2023-09-08T05:22:04;101224.53;;;21.79;55.65
22830;BME280;11581;51.250;6.778;2023-09-08T05:24:32;101249.38;;;22.15;55.36
22830;BME280;11581;51.250;6.778;2023-09-08T05:26:59;101204.22;;;22.14;55.17
22830;BME280;11581;51.250;6.778;2023-09-08T05:29:26;101252.59;;;22.76;54.57
22830;BME280;11581;51.250;6.778;2023-09-08T05:31:53;101246.59;;;23.11;53.88
22830;BME280;11581;51.250;6.778;2023-09-08T05:34:21;101238.66;;;23.47;53.39
22830;BME280;11581;51.250;6.778;2023-09-08T05:36:47;101114.75;;;23.07;52.49
22830;BME280;11581;51.250;6.778;2023-09-08T05:39:15;101244.53;;;24.25;51.66
22830;BME280;11581;51.250;6.778;2023-09-08T05:41:44;101245.34;;;24.68;51.14
22830;BME280;11581;51.250;6.778;2023-09-08T05:44:11;101228.19;;;24.97;50.45
22830;BME280;11581;51.250;6.778;2023-09-08T05:46:38;101241.38;;;25.47;49.28
22830;BME280;11581;51.250;6.778;2023-09-08T05:49:06;101223.53;;;25.74;47.89
22830;BME280;11581;51.250;6.778;2023-09-08T05:51:33;101233.91;;;26.19;47.92
22830;BME280;11581;51.250;6.778;2023-09-08T05:54:01;101261.13;;;26.71;46.71
22830;BME280;11581;51.250;6.778;2023-09-08T05:56:31;101255.19;;;27.14;44.57
22830;BME280;11581;51.250;6.778;2023-09-08T05:58:58;101254.06;;;27.54;44.88
22830;BME280;11581;51.250;6.778;2023-09-08T06:01:28;101253.13;;;27.93;43.82
22830;BME280;11581;51.250;6.778;2023-09-08T06:03:55;101252.59;;;28.30;43.17
22830;BME280;11581;51.250;6.778;2023-09-08T06:06:24;101254.78;;;28.66;42.40
22830;BME280;11581;51.250;6.778;2023-09-08T06:08:51;101235.34;;;28.89;41.50
22830;BME280;11581;51.250;6.778;2023-09-08T06:11:18;101247.44;;;29.36;40.60
22830;BME280;11581;51.250;6.778;2023-09-08T06:13:46;101257.19;;;29.70;39.51
22830;BME280;11581;51.250;6.778;2023-09-08T06:16:13;101240.34;;;29.93;39.83
22830;BME280;11581;51.250;6.778;2023-09-08T06:18:40;101247.81;;;30.34;38.82
22830;BME280;11581;51.250;6.778;2023-09-08T06:21:11;101208.78;;;30.42;38.24
22830;BME280;11581;51.250;6.778;2023-09-08T06:23:39;101232.97;;;30.87;37.58
22830;BME280;11581;51.250;6.778;2023-09-08T06:26:05;101256.31;;;31.36;36.92
22830;BME280;11581;51.250;6.778;2023-09-08T06:28:33;101266.56;;;31.70;36.83
22830;BME280;11581;51.250;6.778;2023-09-08T06:31:04;101220.22;;;31.77;35.07
22830;BME280;11581;51.250;6.778;2023-09-08T06:33:31;101236.47;;;32.29;35.50
22830;BME280;11581;51.250;6.778;2023-09-08T06:35:58;101239.47;;;32.63;34.37
22830;BME280;11581;51.250;6.778;2023-09-08T06:38:25;101257.00;;;33.02;33.54
22830;BME280;11581;51.250;6.778;2023-09-08T06:40:53;101266.56;;;33.24;33.39
22830;BME280;11581;51.250;6.778;2023-09-08T06:43:21;101265.63;;;33.49;32.99
22830;BME280;11581;51.250;6.778;2023-09-08T06:45:55;101261.84;;;33.73;32.44
22830;BME280;11581;51.250;6.778;2023-09-08T06:48:24;101228.09;;;33.76;31.43
22830;BME280;11581;51.250;6.778;2023-09-08T06:50:52;101227.44;;;33.89;30.93
22830;BME280;11581;51.250;6.778;2023-09-08T06:53:22;101241.25;;;34.23;30.92
22830;BME280;11581;51.250;6.778;2023-09-08T06:55:50;101243.78;;;34.48;30.49
22830;BME280;11581;51.250;6.778;2023-09-08T06:58:17;101204.28;;;34.38;29.95
22830;BME280;11581;51.250;6.778;2023-09-08T07:00:43;101270.81;;;34.80;29.69
22830;BME280;11581;51.250;6.778;2023-09-08T07:03:11;101256.69;;;34.81;29.60
22830;BME280;11581;51.250;6.778;2023-09-08T07:05:40;101221.13;;;34.65;28.65
22830;BME280;11581;51.250;6.778;2023-09-08T07:08:07;101263.41;;;34.99;29.44
22830;BME280;11581;51.250;6.778;2023-09-08T07:10:34;101208.38;;;34.69;28.96
22830;BME280;11581;51.250;6.778;2023-09-08T07:13:01;101216.94;;;34.91;28.81
22830;BME280;11581;51.250;6.778;2023-09-08T07:15:28;101250.16;;;35.14;28.49
22830;BME280;11581;51.250;6.778;2023-09-08T07:17:55;101205.06;;;34.90;28.32
22830;BME280;11581;51.250;6.778;2023-09-08T07:20:22;101127.53;;;34.43;28.20
22830;BME280;11581;51.250;6.778;2023-09-08T07:22:50;101279.75;;;35.42;27.92
22830;BME280;11581;51.250;6.778;2023-09-08T07:25:17;101200.66;;;35.08;27.83
22830;BME280;11581;51.250;6.778;2023-09-08T07:27:45;101262.34;;;35.55;28.02
22830;BME280;11581;51.250;6.778;2023-09-08T07:30:13;101280.81;;;35.83;27.44
22830;BME280;11581;51.250;6.778;2023-09-08T07:32:40;101274.69;;;36.00;27.39
22830;BME280;11581;51.250;6.778;2023-09-08T07:35:09;101138.22;;;35.29;27.16
22830;BME280;11581;51.250;6.778;2023-09-08T07:37:40;101284.09;;;36.36;27.21
22830;BME280;11581;51.250;6.778;2023-09-08T07:40:10;101282.56;;;36.57;26.21
22830;BME280;11581;51.250;6.778;2023-09-08T07:42:37;101256.53;;;36.67;26.48
22830;BME280;11581;51.250;6.778;2023-09-08T07:45:06;101269.75;;;36.88;25.97
22830;BME280;11581;51.250;6.778;2023-09-08T07:47:35;101259.03;;;36.95;25.69
22830;BME280;11581;51.250;6.778;2023-09-08T07:50:17;101267.47;;;37.04;25.39
22830;BME280;11581;51.250;6.778;2023-09-08T07:52:44;101279.38;;;37.18;25.36
22830;BME280;11581;51.250;6.778;2023-09-08T07:55:15;101278.69;;;37.26;25.23
22830;BME280;11581;51.250;6.778;2023-09-08T07:57:42;101278.84;;;37.43;25.68
22830;BME280;11581;51.250;6.778;2023-09-08T08:00:10;101251.03;;;37.43;25.24
22830;BME280;11581;51.250;6.778;2023-09-08T08:02:37;101273.09;;;37.75;25.34
22830;BME280;11581;51.250;6.778;2023-09-08T08:05:05;101282.09;;;37.94;25.29
22830;BME280;11581;51.250;6.778;2023-09-08T08:07:33;101193.81;;;37.64;24.95
22830;BME280;11581;51.250;6.778;2023-09-08T08:10:00;101262.72;;;38.33;24.38
22830;BME280;11581;51.250;6.778;2023-09-08T08:12:28;101224.00;;;38.23;24.08
22830;BME280;11581;51.250;6.778;2023-09-08T08:14:55;101256.69;;;38.70;24.30
22830;BME280;11581;51.250;6.778;2023-09-08T08:17:22;101257.72;;;38.91;24.16
22830;BME280;11581;51.250;6.778;2023-09-08T08:19:48;101254.84;;;39.13;23.51
22830;BME280;11581;51.250;6.778;2023-09-08T08:22:15;101261.16;;;39.44;23.39
22830;BME280;11581;51.250;6.778;2023-09-08T08:24:42;101238.16;;;39.47;22.78
22830;BME280;11581;51.250;6.778;2023-09-08T08:27:09;101264.25;;;39.94;22.55
22830;BME280;11581;51.250;6.778;2023-09-08T08:29:38;101250.97;;;40.00;21.75
22830;BME280;11581;51.250;6.778;2023-09-08T08:32:05;101271.44;;;40.29;21.92
22830;BME280;11581;51.250;6.778;2023-09-08T08:34:32;101212.00;;;40.03;21.77
22830;BME280;11581;51.250;6.778;2023-09-08T08:36:59;101237.44;;;40.27;21.47
22830;BME280;11581;51.250;6.778;2023-09-08T08:39:26;101215.94;;;40.11;21.25
22830;BME280;11581;51.250;6.778;2023-09-08T08:41:53;101239.75;;;40.17;21.47
22830;BME280;11581;51.250;6.778;2023-09-08T08:44:21;101262.22;;;40.37;21.75
22830;BME280;11581;51.250;6.778;2023-09-08T08:46:51;101254.31;;;40.39;21.59
22830;BME280;11581;51.250;6.778;2023-09-08T08:49:18;101261.66;;;40.61;21.24
22830;BME280;11581;51.250;6.778;2023-09-08T08:51:46;101273.44;;;40.75;21.23
22830;BME280;11581;51.250;6.778;2023-09-08T08:54:15;101262.50;;;40.90;20.99
22830;BME280;11581;51.250;6.778;2023-09-08T08:56:42;101166.00;;;40.47;21.24
22830;BME280;11581;51.250;6.778;2023-09-08T08:59:09;101267.91;;;41.24;20.83
22830;BME280;11581;51.250;6.778;2023-09-08T09:01:37;101200.44;;;40.97;20.65
22830;BME280;11581;51.250;6.778;2023-09-08T09:04:07;101268.56;;;41.50;20.28
22830;BME280;11581;51.250;6.778;2023-09-08T09:06:35;101266.50;;;41.59;20.24
22830;BME280;11581;51.250;6.778;2023-09-08T09:09:02;101266.78;;;41.66;20.05
22830;BME280;11581;51.250;6.778;2023-09-08T09:11:30;101234.63;;;41.52;20.18
22830;BME280;11581;51.250;6.778;2023-09-08T09:13:57;101266.09;;;41.69;19.92
22830;BME280;11581;51.250;6.778;2023-09-08T09:16:24;101271.19;;;41.67;20.30
22830;BME280;11581;51.250;6.778;2023-09-08T09:18:55;101258.97;;;41.72;19.98
22830;BME280;11581;51.250;6.778;2023-09-08T09:21:24;101253.44;;;41.84;20.24
22830;BME280;11581;51.250;6.778;2023-09-08T09:23:51;101264.00;;;41.99;20.33
22830;BME280;11581;51.250;6.778;2023-09-08T09:26:24;101261.13;;;42.08;19.78
22830;BME280;11581;51.250;6.778;2023-09-08T09:28:52;101251.31;;;42.14;20.14
22830;BME280;11581;51.250;6.778;2023-09-08T09:31:23;101246.78;;;42.21;19.81
22830;BME280;11581;51.250;6.778;2023-09-08T09:34:01;101263.44;;;42.50;19.86
22830;BME280;11581;51.250;6.778;2023-09-08T09:36:32;101235.28;;;42.59;18.98
22830;BME280;11581;51.250;6.778;2023-09-08T09:39:03;101186.59;;;42.51;19.72
22830;BME280;11581;51.250;6.778;2023-09-08T09:41:31;101248.75;;;43.13;19.26
22830;BME280;11581;51.250;6.778;2023-09-08T09:43:58;101226.31;;;43.13;19.13
22830;BME280;11581;51.250;6.778;2023-09-08T09:46:27;101218.78;;;43.29;18.67
22830;BME280;11581;51.250;6.778;2023-09-08T09:48:54;101233.59;;;43.54;18.37
22830;BME280;11581;51.250;6.778;2023-09-08T09:51:22;101252.97;;;43.59;18.59
22830;BME280;11581;51.250;6.778;2023-09-08T09:53:50;101239.75;;;43.59;18.54
22830;BME280;11581;51.250;6.778;2023-09-08T09:56:20;101220.25;;;43.51;18.61
22830;BME280;11581;51.250;6.778;2023-09-08T09:58:49;101241.63;;;43.67;18.61
22830;BME280;11581;51.250;6.778;2023-09-08T10:01:18;101250.78;;;43.80;18.78
22830;BME280;11581;51.250;6.778;2023-09-08T10:03:46;101249.59;;;43.93;18.50
22830;BME280;11581;51.250;6.778;2023-09-08T10:06:14;101246.19;;;44.15;18.78
22830;BME280;11581;51.250;6.778;2023-09-08T10:08:42;101243.41;;;44.31;18.50
22830;BME280;11581;51.250;6.778;2023-09-08T10:11:11;101252.41;;;44.52;17.84
22830;BME280;11581;51.250;6.778;2023-09-08T10:13:43;101246.47;;;44.57;17.67
22830;BME280;11581;51.250;6.778;2023-09-08T10:16:16;101250.31;;;44.64;17.65
22830;BME280;11581;51.250;6.778;2023-09-08T10:18:48;101215.66;;;44.45;18.19
22830;BME280;11581;51.250;6.778;2023-09-08T10:21:16;101244.50;;;44.73;18.13
22830;BME280;11581;51.250;6.778;2023-09-08T10:23:48;101229.72;;;44.76;17.87
22830;BME280;11581;51.250;6.778;2023-09-08T10:26:22;101242.22;;;44.94;17.64
22830;BME280;11581;51.250;6.778;2023-09-08T10:28:54;101248.56;;;45.06;17.96
22830;BME280;11581;51.250;6.778;2023-09-08T10:31:24;101209.59;;;44.93;17.47
22830;BME280;11581;51.250;6.778;2023-09-08T10:33:51;101229.34;;;45.27;17.63
22830;BME280;11581;51.250;6.778;2023-09-08T10:36:18;101224.50;;;45.43;17.61
22830;BME280;11581;51.250;6.778;2023-09-08T10:38:46;101145.31;;;45.10;17.45
22830;BME280;11581;51.250;6.778;2023-09-08T10:41:29;101229.53;;;45.73;17.32
22830;BME280;11581;51.250;6.778;2023-09-08T10:44:01;101214.88;;;45.67;17.10
22830;BME280;11581;51.250;6.778;2023-09-08T10:46:31;101179.34;;;45.59;17.14
22830;BME280;11581;51.250;6.778;2023-09-08T10:49:03;101230.38;;;45.96;17.00
22830;BME280;11581;51.250;6.778;2023-09-08T10:51:34;101191.34;;;45.75;17.37
22830;BME280;11581;51.250;6.778;2023-09-08T10:54:01;101240.53;;;46.19;16.98
22830;BME280;11581;51.250;6.778;2023-09-08T10:56:47;101241.25;;;46.39;16.86
22830;BME280;11581;51.250;6.778;2023-09-08T10:59:15;101232.38;;;46.59;16.75
22830;BME280;11581;51.250;6.778;2023-09-08T11:01:42;101233.63;;;46.84;16.63
22830;BME280;11581;51.250;6.778;2023-09-08T11:04:09;101223.38;;;47.02;16.52
22830;BME280;11581;51.250;6.778;2023-09-08T11:06:38;101215.25;;;47.23;16.43
22830;BME280;11581;51.250;6.778;2023-09-08T11:09:06;101225.63;;;47.46;15.74
22830;BME280;11581;51.250;6.778;2023-09-08T11:11:35;101186.66;;;47.28;15.64
22830;BME280;11581;51.250;6.778;2023-09-08T11:14:02;101240.47;;;47.69;15.94
22830;BME280;11581;51.250;6.778;2023-09-08T11:16:28;101233.25;;;47.75;15.93
22830;BME280;11581;51.250;6.778;2023-09-08T11:18:59;101236.09;;;47.75;15.70
22830;BME280;11581;51.250;6.778;2023-09-08T11:21:31;101213.22;;;47.54;15.73
22830;BME280;11581;51.250;6.778;2023-09-08T11:24:01;101157.03;;;47.15;15.80
22830;BME280;11581;51.250;6.778;2023-09-08T11:26:34;101154.94;;;47.09;15.56
22830;BME280;11581;51.250;6.778;2023-09-08T11:29:01;101228.63;;;47.60;15.67
22830;BME280;11581;51.250;6.778;2023-09-08T11:31:29;101228.72;;;47.67;15.93
22830;BME280;11581;51.250;6.778;2023-09-08T11:33:56;101225.97;;;47.74;15.88
22830;BME280;11581;51.250;6.778;2023-09-08T11:36:24;101211.44;;;47.72;15.65
22830;BME280;11581;51.250;6.778;2023-09-08T11:38:52;101225.31;;;47.87;15.84
22830;BME280;11581;51.250;6.778;2023-09-08T11:41:19;101217.31;;;47.93;15.55
22830;BME280;11581;51.250;6.778;2023-09-08T11:43:50;101218.97;;;47.94;15.59
22830;BME280;11581;51.250;6.778;2023-09-08T11:46:17;101218.16;;;47.97;15.73
22830;BME280;11581;51.250;6.778;2023-09-08T11:48:46;101220.22;;;48.00;15.44
22830;BME280;11581;51.250;6.778;2023-09-08T11:51:12;101220.59;;;47.95;15.04
22830;BME280;11581;51.250;6.778;2023-09-08T11:53:39;101197.75;;;47.77;15.28
22830;BME280;11581;51.250;6.778;2023-09-08T11:56:08;101209.09;;;47.81;15.40
22830;BME280;11581;51.250;6.778;2023-09-08T11:58:35;101191.16;;;47.63;15.61
22830;BME280;11581;51.250;6.778;2023-09-08T12:01:04;101200.81;;;47.62;15.38
22830;BME280;11581;51.250;6.778;2023-09-08T12:03:32;101203.25;;;47.63;15.34
22830;BME280;11581;51.250;6.778;2023-09-08T12:05:59;101208.81;;;47.56;15.39
22830;BME280;11581;51.250;6.778;2023-09-08T12:08:27;101190.16;;;47.18;15.76
22830;BME280;11581;51.250;6.778;2023-09-08T12:10:54;101201.47;;;46.92;15.64
22830;BME280;11581;51.250;6.778;2023-09-08T12:13:22;101200.38;;;46.74;16.08
22830;BME280;11581;51.250;6.778;2023-09-08T12:15:49;101144.03;;;46.29;16.28
22830;BME280;11581;51.250;6.778;2023-09-08T12:18:17;101201.47;;;46.44;15.88
22830;BME280;11581;51.250;6.778;2023-09-08T12:20:44;101185.69;;;46.17;16.48
22830;BME280;11581;51.250;6.778;2023-09-08T12:23:16;101196.75;;;46.06;16.38
22830;BME280;11581;51.250;6.778;2023-09-08T12:25:47;101170.44;;;45.76;16.50
22830;BME280;11581;51.250;6.778;2023-09-08T12:28:15;101161.81;;;45.69;16.58
22830;BME280;11581;51.250;6.778;2023-09-08T12:30:42;101167.19;;;45.55;16.58
22830;BME280;11581;51.250;6.778;2023-09-08T12:33:09;101188.22;;;45.61;16.56
22830;BME280;11581;51.250;6.778;2023-09-08T12:35:42;101194.75;;;45.46;16.68
22830;BME280;11581;51.250;6.778;2023-09-08T12:38:10;101173.31;;;45.22;16.84
22830;BME280;11581;51.250;6.778;2023-09-08T12:40:38;101173.03;;;45.08;16.96
22830;BME280;11581;51.250;6.778;2023-09-08T12:43:05;101163.06;;;44.95;17.19
22830;BME280;11581;51.250;6.778;2023-09-08T12:45:32;101105.88;;;44.57;17.00
22830;BME280;11581;51.250;6.778;2023-09-08T12:48:00;101130.28;;;44.68;17.20
22830;BME280;11581;51.250;6.778;2023-09-08T12:50:29;101182.56;;;45.04;17.23
22830;BME280;11581;51.250;6.778;2023-09-08T12:52:57;101155.16;;;45.01;17.29
22830;BME280;11581;51.250;6.778;2023-09-08T12:55:24;101184.94;;;45.21;17.11
22830;BME280;11581;51.250;6.778;2023-09-08T12:57:51;101175.75;;;45.24;16.91